createdAt,value
2023-03-22T00:02:13.343Z,12.44
2023-03-22T00:04:41.745Z,12.45
2023-03-22T00:07:08.299Z,12.50
2023-03-22T00:09:34.860Z,12.52
2023-03-22T00:12:01.489Z,12.48
2023-03-22T00:14:28.065Z,12.44
2023-03-22T00:16:54.686Z,12.38
2023-03-22T00:19:21.237Z,12.34
2023-03-22T00:21:47.850Z,12.33
2023-03-22T00:24:14.444Z,12.32
2023-03-22T00:26:41.052Z,12.27
2023-03-22T00:29:08.723Z,12.25
2023-03-22T00:31:35.418Z,12.24
2023-03-22T00:34:03.126Z,12.19
2023-03-22T00:36:29.787Z,12.21
2023-03-22T00:38:56.502Z,12.20
2023-03-22T00:41:24.060Z,12.20
2023-03-22T00:43:51.923Z,12.19
2023-03-22T00:46:20.525Z,12.17
2023-03-22T00:48:47.910Z,12.13
2023-03-22T00:51:15.096Z,12.06
2023-03-22T00:53:43.243Z,12.03
2023-03-22T00:56:13.957Z,11.98
2023-03-22T00:58:41.110Z,11.94
2023-03-22T01:01:08.404Z,11.96
2023-03-22T01:03:35.198Z,11.94
2023-03-22T01:06:01.932Z,11.97
2023-03-22T01:08:33.417Z,11.98
2023-03-22T01:11:01.313Z,11.97
2023-03-22T01:13:29.614Z,11.97
2023-03-22T01:15:59.171Z,11.87
2023-03-22T01:18:25.701Z,11.95
2023-03-22T01:20:52.367Z,11.96
2023-03-22T01:23:18.909Z,11.96
2023-03-22T01:25:46.613Z,11.96
2023-03-22T01:28:13.464Z,11.96
2023-03-22T01:30:41.011Z,11.90
2023-03-22T01:33:08.252Z,11.86
2023-03-22T01:35:36.261Z,11.83
2023-03-22T01:38:03.164Z,11.77
2023-03-22T01:40:29.852Z,11.72
2023-03-22T01:42:56.811Z,11.72
2023-03-22T01:45:38.828Z,11.71
2023-03-22T01:48:21.841Z,11.71
2023-03-22T01:50:56.197Z,11.66
2023-03-22T01:53:25.352Z,11.63
2023-03-22T01:55:53.572Z,11.60
2023-03-22T01:58:20.558Z,11.55
2023-03-22T02:00:50.419Z,11.53
2023-03-22T02:03:25.994Z,11.52
2023-03-22T02:06:07.204Z,11.47
2023-03-22T02:08:36.428Z,11.42
2023-03-22T02:11:04.555Z,11.37
2023-03-22T02:13:47.847Z,11.38
2023-03-22T02:16:43.209Z,11.37
2023-03-22T02:19:42.479Z,11.34
2023-03-22T02:22:15.040Z,11.36
2023-03-22T02:24:55.641Z,11.38
2023-03-22T02:27:44.113Z,11.37
2023-03-22T02:30:35.372Z,11.35
2023-03-22T02:33:19.382Z,11.31
2023-03-22T02:35:46.182Z,11.30
2023-03-22T02:38:36.797Z,11.24
2023-03-22T02:41:17.522Z,11.21
2023-03-22T02:44:02.849Z,11.22
2023-03-22T02:46:56.006Z,11.21
2023-03-22T02:49:33.422Z,11.14
2023-03-22T02:52:17.597Z,11.07
2023-03-22T02:54:52.993Z,11.07
2023-03-22T02:57:31.419Z,11.09
2023-03-22T03:00:00.815Z,11.10
2023-03-22T03:02:29.385Z,11.10
2023-03-22T03:04:56.943Z,11.07
2023-03-22T03:07:29.037Z,11.10
2023-03-22T03:09:56.423Z,11.07
2023-03-22T03:12:28.059Z,11.13
2023-03-22T03:14:55.270Z,11.18
2023-03-22T03:18:02.102Z,11.19
2023-03-22T03:21:17.044Z,11.15
2023-03-22T03:23:56.057Z,11.15
2023-03-22T03:26:45.854Z,11.16
2023-03-22T03:29:24.420Z,11.17
2023-03-22T03:32:00.761Z,11.16
2023-03-22T03:34:38.117Z,11.17
2023-03-22T03:37:15.956Z,11.16
2023-03-22T03:39:48.303Z,11.16
2023-03-22T03:42:17.052Z,11.19
2023-03-22T03:44:44.466Z,11.24
2023-03-22T03:47:12.152Z,11.28
2023-03-22T03:49:39.207Z,11.29
2023-03-22T03:52:06.676Z,11.30
2023-03-22T03:54:33.610Z,11.32
2023-03-22T03:57:02.833Z,11.31
2023-03-22T03:59:30.502Z,11.30
2023-03-22T04:01:57.141Z,11.29
2023-03-22T04:04:27.437Z,11.27
2023-03-22T04:06:59.254Z,11.28
2023-03-22T04:09:28.554Z,11.31
2023-03-22T04:11:56.296Z,11.37
2023-03-22T04:14:24.475Z,11.40
2023-03-22T04:16:51.803Z,11.37
2023-03-22T04:19:19.152Z,11.32
2023-03-22T04:21:46.126Z,11.30
2023-03-22T04:24:13.285Z,11.31
2023-03-22T04:26:40.449Z,11.33
2023-03-22T04:29:07.559Z,11.35
2023-03-22T04:31:35.731Z,11.39
2023-03-22T04:34:05.694Z,11.42
2023-03-22T04:36:36.539Z,11.39
2023-03-22T04:39:05.997Z,11.28
2023-03-22T04:41:33.766Z,11.35
2023-03-22T04:44:03.584Z,11.34
2023-03-22T04:46:36.032Z,11.33
2023-03-22T04:49:03.893Z,11.34
2023-03-22T04:51:32.135Z,11.32
2023-03-22T04:53:59.125Z,11.28
2023-03-22T04:56:25.985Z,11.28
2023-03-22T04:58:52.762Z,11.28
2023-03-22T05:01:19.383Z,11.25
2023-03-22T05:03:47.491Z,11.22
2023-03-22T05:06:15.301Z,11.20
2023-03-22T05:08:42.609Z,11.18
2023-03-22T05:11:13.198Z,11.18
2023-03-22T05:13:40.421Z,11.20
2023-03-22T05:16:08.064Z,11.17
2023-03-22T05:18:40.022Z,11.08
2023-03-22T05:21:06.908Z,11.06
2023-03-22T05:23:33.515Z,11.02
2023-03-22T05:26:01.692Z,10.99
2023-03-22T05:28:28.609Z,10.97
2023-03-22T05:30:57.232Z,10.97
2023-03-22T05:33:24.080Z,10.99
2023-03-22T05:35:51.363Z,10.98
2023-03-22T05:38:18.247Z,11.03
2023-03-22T05:40:45.373Z,11.07
2023-03-22T06:04:04.843Z,11.67
2023-03-22T06:06:31.484Z,11.70
2023-03-22T06:09:10.583Z,11.80
2023-03-22T06:11:42.641Z,11.86
2023-03-22T06:14:09.247Z,11.98
2023-03-22T06:16:35.983Z,12.01
2023-03-22T06:19:02.756Z,12.05
2023-03-22T06:21:29.354Z,12.02
2023-03-22T06:23:56.328Z,12.00
2023-03-22T06:26:23.016Z,12.06
2023-03-22T06:28:49.599Z,12.12
2023-03-22T06:31:16.321Z,12.22
2023-03-22T06:33:43.553Z,12.40
2023-03-22T06:36:10.388Z,12.57
2023-03-22T06:38:37.049Z,12.85
2023-03-22T06:41:03.736Z,13.17
2023-03-22T06:43:30.374Z,13.68
2023-03-22T06:46:00.062Z,14.20
2023-03-22T06:48:26.737Z,14.76
2023-03-22T06:50:53.345Z,15.31
2023-03-22T06:53:20.021Z,15.52
2023-03-22T06:55:47.038Z,16.29
2023-03-22T06:58:13.936Z,16.95
2023-03-22T07:00:41.556Z,17.07
2023-03-22T07:03:08.400Z,17.30
2023-03-22T07:05:35.050Z,17.71
2023-03-22T07:08:02.042Z,18.19
2023-03-22T07:10:28.870Z,18.79
2023-03-22T07:12:55.736Z,19.23
2023-03-22T07:15:25.160Z,19.07
2023-03-22T07:17:52.468Z,19.06
2023-03-22T07:20:19.935Z,18.82
2023-03-22T07:22:46.559Z,18.74
2023-03-22T07:25:13.446Z,19.30
2023-03-22T07:27:40.365Z,19.63
2023-03-22T07:30:09.441Z,20.25
2023-03-22T07:32:36.527Z,21.01
2023-03-22T07:35:03.212Z,21.02
2023-03-22T07:37:29.930Z,21.03
2023-03-22T07:39:56.550Z,21.79
2023-03-22T07:42:23.162Z,21.68
2023-03-22T07:44:49.928Z,22.05
2023-03-22T07:47:20.278Z,22.46
2023-03-22T07:49:51.476Z,22.67
2023-03-22T07:52:18.360Z,22.54
2023-03-22T07:54:44.988Z,23.00
2023-03-22T07:57:11.593Z,23.40
2023-03-22T07:59:40.072Z,23.82
2023-03-22T08:02:07.040Z,23.38
2023-03-22T08:04:34.256Z,23.52
2023-03-22T08:07:00.791Z,24.15
2023-03-22T08:09:27.387Z,23.80
2023-03-22T08:11:54.047Z,23.84
2023-03-22T08:14:30.602Z,24.92
2023-03-22T08:17:00.849Z,24.97
2023-03-22T08:19:28.104Z,25.34
2023-03-22T08:21:54.653Z,24.91
2023-03-22T08:24:21.434Z,23.98
2023-03-22T08:26:49.811Z,23.34
2023-03-22T08:29:16.882Z,23.20
2023-03-22T08:31:43.498Z,24.11
2023-03-22T08:34:10.445Z,23.18
2023-03-22T08:36:38.621Z,24.11
2023-03-22T08:39:05.707Z,23.78
2023-03-22T08:41:32.310Z,23.98
2023-03-22T08:43:58.918Z,24.60
2023-03-22T08:46:25.677Z,23.65
2023-03-22T08:48:52.597Z,24.60
2023-03-22T08:51:22.046Z,24.64
2023-03-22T08:53:49.691Z,24.54
2023-03-22T08:56:20.217Z,24.47
2023-03-22T08:58:47.238Z,24.72
2023-03-22T09:01:15.613Z,23.21
2023-03-22T09:03:42.926Z,24.87
2023-03-22T09:06:10.909Z,23.73
2023-03-22T09:08:38.173Z,23.95
2023-03-22T09:11:07.753Z,23.69
2023-03-22T09:13:34.732Z,25.01
2023-03-22T09:16:01.350Z,25.35
2023-03-22T09:18:28.166Z,25.17
2023-03-22T09:20:55.042Z,24.50
2023-03-22T09:23:21.701Z,24.92
2023-03-22T09:25:48.887Z,25.26
2023-03-22T09:28:17.057Z,25.50
2023-03-22T09:30:44.895Z,25.42
2023-03-22T09:33:11.762Z,24.53
2023-03-22T09:35:43.067Z,24.35
2023-03-22T09:38:12.167Z,25.76
2023-03-22T09:41:00.423Z,26.02
2023-03-22T09:43:35.431Z,25.80
2023-03-22T09:46:03.865Z,26.39
2023-03-22T09:48:34.066Z,26.83
2023-03-22T09:51:02.794Z,27.12
2023-03-22T09:53:31.730Z,26.88
2023-03-22T09:56:14.447Z,27.15
2023-03-22T09:58:47.219Z,27.06
2023-03-22T10:01:29.269Z,26.78
2023-03-22T10:04:22.219Z,26.39
2023-03-22T10:06:54.910Z,27.21
2023-03-22T10:09:39.181Z,27.38
2023-03-22T10:12:11.956Z,27.58
2023-03-22T10:15:01.869Z,27.66
2023-03-22T10:17:29.758Z,26.48
2023-03-22T10:20:05.416Z,25.47
2023-03-22T10:22:36.336Z,25.69
2023-03-22T10:25:06.127Z,24.75
2023-03-22T10:27:34.717Z,26.10
2023-03-22T10:30:19.450Z,27.03
2023-03-22T10:33:11.134Z,26.83
2023-03-22T10:35:38.341Z,27.02
2023-03-22T10:38:09.440Z,26.55
2023-03-22T10:40:37.511Z,26.08
2023-03-22T10:43:30.385Z,26.41
2023-03-22T10:45:58.619Z,26.79
2023-03-22T10:48:35.384Z,26.19
2023-03-22T10:51:02.337Z,26.01
2023-03-22T10:53:40.894Z,25.43
2023-03-22T10:56:14.045Z,25.43
2023-03-22T10:58:40.809Z,25.76
2023-03-22T11:01:10.962Z,24.69
2023-03-22T11:03:44.913Z,25.09
2023-03-22T11:06:17.857Z,25.25
2023-03-22T11:08:48.937Z,24.99
2023-03-22T11:11:22.636Z,23.80
2023-03-22T11:14:04.681Z,24.27
2023-03-22T11:16:32.567Z,24.42
2023-03-22T11:19:02.365Z,24.55
2023-03-22T11:21:33.185Z,24.44
2023-03-22T11:24:04.783Z,24.49
2023-03-22T11:26:37.463Z,24.52
2023-03-22T11:29:16.654Z,24.61
2023-03-22T11:31:55.147Z,24.75
2023-03-22T11:34:24.851Z,24.60
2023-03-22T11:36:54.822Z,24.33
2023-03-22T11:39:23.633Z,24.69
2023-03-22T11:41:51.157Z,24.62
2023-03-22T11:44:21.658Z,24.40
2023-03-22T11:47:01.139Z,24.21
2023-03-22T11:49:39.765Z,24.33
2023-03-22T11:52:29.410Z,24.44
2023-03-22T11:54:58.944Z,24.21
2023-03-22T11:57:34.633Z,24.19
2023-03-22T12:00:14.215Z,23.67
2023-03-22T12:02:56.023Z,22.94
2023-03-22T12:05:27.624Z,23.23
2023-03-22T12:08:01.817Z,23.87
2023-03-22T12:10:31.919Z,23.89
2023-03-22T12:13:04.483Z,23.63
2023-03-22T12:15:35.389Z,23.68
2023-03-22T12:18:19.394Z,23.73
2023-03-22T12:20:56.904Z,23.44
2023-03-22T12:23:26.647Z,23.75
2023-03-22T12:26:12.448Z,23.91
2023-03-22T12:28:49.928Z,23.83
2023-03-22T12:31:21.645Z,23.97
2023-03-22T12:33:51.532Z,24.13
2023-03-22T12:36:21.919Z,24.10
2023-03-22T12:38:57.358Z,24.27
2023-03-22T12:41:34.494Z,24.24
2023-03-22T12:44:43.320Z,24.13
2023-03-22T12:47:23.606Z,23.99
2023-03-22T12:50:00.549Z,23.53
2023-03-22T12:52:45.727Z,23.90
2023-03-22T12:55:36.705Z,24.17
2023-03-22T12:58:07.362Z,24.08
2023-03-22T13:00:41.012Z,23.82
2023-03-22T13:03:17.475Z,23.30
2023-03-22T13:06:00.771Z,23.25
2023-03-22T13:09:06.167Z,22.40
2023-03-22T13:11:33.263Z,22.35
2023-03-22T13:13:59.772Z,22.32
2023-03-22T13:16:48.945Z,22.76
2023-03-22T13:19:28.863Z,23.17
2023-03-22T13:22:21.070Z,23.54
2023-03-22T13:25:30.544Z,23.75
2023-03-22T13:28:19.883Z,23.85
2023-03-22T13:30:53.728Z,22.51
2023-03-22T13:33:29.502Z,22.64
2023-03-22T13:36:01.545Z,23.34
2023-03-22T13:38:41.726Z,23.75
2023-03-22T13:41:42.065Z,23.90
2023-03-22T13:44:36.088Z,23.97
2023-03-22T13:47:03.236Z,24.11
2023-03-22T13:49:45.928Z,23.76
2023-03-22T13:52:34.626Z,23.88
2023-03-22T13:55:01.434Z,23.99
2023-03-22T13:57:58.918Z,24.01
2023-03-22T14:00:31.542Z,23.94
2023-03-22T14:03:02.108Z,23.83
2023-03-22T14:05:32.728Z,23.96
2023-03-22T14:08:00.740Z,23.89
2023-03-22T14:10:42.329Z,23.76
2023-03-22T14:13:30.772Z,23.66
2023-03-22T14:16:04.595Z,23.12
2023-03-22T14:18:33.310Z,23.32
2023-03-22T14:21:18.018Z,23.52
